Prochaines Courses

Connexion

Poussins

POUSSINS DESVRES du 14/12/14 (Réelle 1,1)
Rang Dossard Nom Prénom Temps Cat Rang Cat Ecart Ecart Cat Club Vitesse Km/h Temps au Km
1 206 BADON Rémi 00:03:59 POM 1 00:00:00 00:00:00 16,569 03:37
2 252 MARTIN NATHAN 00:04:00 POM 2 00:00:01 00:00:01 16,500 03:38
3 207 LANGAGNE Maxin 00:04:01 POM 3 00:00:02 00:00:02 16,432 03:39
4 211 HIPOLITO Mathys 00:04:10 POM 4 00:00:11 00:00:11 15,840 03:47
5 201 SEVRETTE Kyllian 00:04:13 POM 5 00:00:14 00:00:14 15,652 03:50
6 209 PRUDHOMME Théo 00:04:14 POM 6 00:00:15 00:00:15 15,591 03:51
7 204 APHERVE Albain 00:04:20 POM 7 00:00:21 00:00:21 15,231 03:56
8 208 NOEL Celian 00:04:22 POM 8 00:00:23 00:00:23 15,115 03:58
9 163 DELATTRE Lilian 00:04:25 POM 9 00:00:26 00:00:26 14,943 04:01
10 152 BOEZ Honorine 00:04:25 POF 1 00:00:26 00:00:00 14,943 04:01
11 205 LAMARRE Thomas 00:04:27 POM 10 00:00:28 00:00:28 14,831 04:03
12 194 MOULAY Yanis 00:04:29 POM 11 00:00:30 00:00:30 14,721 04:05
13 218 GODARD Célestin 00:04:30 POM 12 00:00:31 00:00:31 14,667 04:05
14 169 DUCROCQ Constance 00:04:31 POF 2 00:00:32 00:00:06 14,613 04:06
15 174 FOURMENTIN Eloïse 00:04:31 POF 3 00:00:32 00:00:06 14,613 04:06
16 221 LEBON Carla 00:04:32 POF 4 00:00:33 00:00:07 14,559 04:07
17 220 GOURNAY Anne 00:04:33 POF 5 00:00:34 00:00:08 14,505 04:08
18 226 LEVEL Adrien 00:04:34 POM 13 00:00:35 00:00:35 14,453 04:09
19 249 BERTIN LILIAN 00:04:36 POM 14 00:00:37 00:00:37 ECOLE SEVIGNE 14,348 04:11
20 223 LIMOUSIN Hugo 00:04:37 POM 15 00:00:38 00:00:38 14,296 04:12
21 246 KUSCHNICK MAXIME 00:04:39 POM 16 00:00:40 00:00:40 14,194 04:14
22 156 CAPDEVILA Davina 00:04:39 POF 6 00:00:40 00:00:14 14,194 04:14
23 179 HEUMEZ Lison 00:04:39 POF 7 00:00:40 00:00:14 14,194 04:14
24 154 BOURGAIN Margaux 00:04:41 POF 8 00:00:42 00:00:16 14,093 04:15
25 245 DURIEZ ELOAN 00:04:42 POM 17 00:00:43 00:00:43 14,043 04:16
26 248 HARLE MATHIS 00:04:52 POM 18 00:00:53 00:00:53 13,562 04:25
27 166 DEMEYER Quentin 00:04:53 POM 19 00:00:54 00:00:54 13,515 04:26
28 189 LEVEL Louna 00:04:55 POF 9 00:00:56 00:00:30 13,424 04:28
29 214 DESCHAND Clément 00:04:56 POM 20 00:00:57 00:00:57 13,378 04:29
30 212 DUFOSSE Théo 00:04:57 POM 21 00:00:58 00:00:58 13,333 04:30
31 173 FERON Nathan 00:04:57 POM 22 00:00:58 00:00:58 13,333 04:30
32 164 DELRUE Sarah 00:04:58 POF 10 00:00:59 00:00:33 13,289 04:31
33 225 DEFACHELLES Clément 00:05:01 POM 23 00:01:02 00:01:02 13,156 04:34
34 157 CAPDEVILA Catrina 00:05:02 POF 11 00:01:03 00:00:37 13,113 04:35
35 177 GIGADEN Hugo 00:05:03 POM 24 00:01:04 00:01:04 13,069 04:35
36 159 COPPIN Clément 00:05:03 POM 25 00:01:04 00:01:04 13,069 04:35
37 216 DELHAYE Edouart 00:05:08 POM 26 00:01:09 00:01:09 12,857 04:40
38 202 DEPIECHIN Fanny 00:05:08 POF 12 00:01:09 00:00:43 12,857 04:40
39 192 MERLIN Zoé 00:05:12 POF 13 00:01:13 00:00:47 12,692 04:44
40 210 SUEUR Lenny 00:05:15 POM 27 00:01:16 00:01:16 12,571 04:46
41 195 MOULAY Sofiane 00:05:15 POM 28 00:01:16 00:01:16 12,571 04:46
42 153 BONNETAUD Mathéo 00:05:16 POM 29 00:01:17 00:01:17 12,532 04:47
43 190 MACQUET-CASTILLON Gisèle 00:05:17 POF 14 00:01:18 00:00:52 12,492 04:48
44 217 MERTZINGER Louane 00:05:18 POF 15 00:01:19 00:00:53 12,453 04:49
45 180 HEUMEZ Zoé 00:05:19 POF 16 00:01:20 00:00:54 12,414 04:50
46 172 FAUQUEMBERGUE Louis 00:05:20 POM 30 00:01:21 00:01:21 12,375 04:51
47 176 FRISCOURT Clara 00:05:25 POF 17 00:01:26 00:01:00 12,185 04:55
48 165 DEMEYER Océane 00:05:26 POF 18 00:01:27 00:01:01 12,147 04:56
49 199 REGNIER Lucie 00:05:27 POF 19 00:01:28 00:01:02 12,110 04:57
50 222 LASSALLE Soléne 00:05:30 POF 20 00:01:31 00:01:05 12,000 05:00
51 182 LACHERE Marie 00:05:30 POF 21 00:01:31 00:01:05 12,000 05:00
52 167 DEMOULIN Paul 00:05:30 POM 31 00:01:31 00:01:31 12,000 05:00
53 160 DACHICOURT Isaline 00:05:31 POF 22 00:01:32 00:01:06 11,964 05:01
54 171 FAUCHOIS Théo 00:05:32 POM 32 00:01:33 00:01:33 11,928 05:02
55 191 MANSEL Lou 00:05:40 POF 23 00:01:41 00:01:15 11,647 05:09
56 178 GRESSIER Philippine 00:05:42 POF 24 00:01:43 00:01:17 11,579 05:11
57 181 HODIQUE Anaïs 00:05:43 POF 25 00:01:44 00:01:18 11,545 05:12
58 200 SERRURIER Evan 00:05:47 POM 33 00:01:48 00:01:48 11,412 05:15
59 215 HAVEZ Lison 00:05:48 POF 26 00:01:49 00:01:23 11,379 05:16
60 187 LEMAHIEU Erwan 00:05:50 POM 34 00:01:51 00:01:51 11,314 05:18
61 175 FOURRIER Anaïs 00:05:50 POF 27 00:01:51 00:01:25 11,314 05:18
62 196 NAVET-KUCZAJ Théo 00:05:51 POM 35 00:01:52 00:01:52 11,282 05:19
63 162 DE SAINTE MARESVILLE Nickita 00:05:58 POF 28 00:01:59 00:01:33 11,061 05:25
64 185 LEFEBVRE Honorine 00:06:00 POF 29 00:02:01 00:01:35 11,000 05:27
65 170 EVRARD Clément 00:06:03 POM 36 00:02:04 00:02:04 10,909 05:30
66 186 LEJOSNE Erwann 00:06:22 POM 37 00:02:23 00:02:23 10,366 05:47
67 191 MANSEL Lou 00:06:23 POF 30 00:02:24 00:01:58 10,339 05:48
68 158 CHOQUET Alexis 00:06:43 POM 38 00:02:44 00:02:44 9,826 06:06
69 161 DAMAGNEZ Annaëlle 00:06:57 POF 31 00:02:58 00:02:32 9,496 06:19
70 151 ALIZIER Zora 00:07:00 POF 32 00:03:01 00:02:35 9,429 06:22
71 253 ALIZIER Enzo 00:13:56 POM 39 00:09:57 00:09:57 4,737 12:40